Time;durP1;ratioP1;P1;durP2;ratioP2;P2;SDS_P1;SDS_P2;PMS_P1;PMS_P2;Temp;Humidity;BMP_temperature;BMP_pressure;BME280_temperature;BME280_humidity;BME280_pressure;Samples;Min_cycle;Max_cycle;Signal;HPM_P1;HPM_P2
2023/07/11 00:00:17;;;;;;;0.00;0.00;;;;;;;20.26;100.00;101609.91;5035344;28;20053;-79
2023/07/11 00:02:43;;;;;;;0.00;0.00;;;;;;;20.17;100.00;101600.34;5037546;28;20029;-79
2023/07/11 00:05:12;;;;;;;0.00;0.00;;;;;;;20.12;100.00;101603.75;5035607;28;20021;-79
2023/07/11 00:07:37;;;;;;;0.00;0.00;;;;;;;20.08;100.00;101596.22;5016473;28;20025;-78
2023/07/11 00:10:02;;;;;;;0.00;0.00;;;;;;;20.08;100.00;101602.53;5033368;28;20060;-78
2023/07/11 00:12:28;;;;;;;0.00;0.00;;;;;;;20.05;100.00;101594.78;5008036;28;20494;-78
2023/07/11 00:14:55;;;;;;;0.00;0.00;;;;;;;20.06;100.00;101592.88;5024860;28;20077;-78
2023/07/11 00:17:20;;;;;;;0.00;0.00;;;;;;;20.07;100.00;101598.13;5027239;28;20074;-79
2023/07/11 00:19:53;;;;;;;0.00;0.00;;;;;;;20.09;100.00;101592.41;5034376;28;20137;-79
2023/07/11 00:22:20;;;;;;;0.00;0.00;;;;;;;20.08;100.00;101585.28;5035587;28;20041;-79
2023/07/11 00:24:48;;;;;;;0.00;0.00;;;;;;;20.04;100.00;101584.94;5035997;28;20077;-79
2023/07/11 00:27:14;;;;;;;0.00;0.00;;;;;;;20.03;100.00;101582.41;5036255;28;20022;-79
2023/07/11 00:29:39;;;;;;;0.00;0.00;;;;;;;20.03;100.00;101582.41;5018676;28;20478;-78
2023/07/11 00:32:06;;;;;;;0.00;0.00;;;;;;;20.00;100.00;101577.41;5036794;28;20064;-78
2023/07/11 00:34:32;;;;;;;0.00;0.00;;;;;;;19.98;100.00;101574.88;5019113;28;20068;-80
2023/07/11 00:36:57;;;;;;;0.00;0.00;;;;;;;19.94;100.00;101570.94;5035031;28;20026;-78
2023/07/11 00:39:22;;;;;;;0.00;0.00;;;;;;;19.92;100.00;101568.44;5019851;28;20034;-79
2023/07/11 00:41:48;;;;;;;0.00;0.00;;;;;;;19.90;100.00;101565.09;5036611;28;20065;-79
2023/07/11 00:44:15;;;;;;;0.00;0.00;;;;;;;19.85;100.00;101559.50;5036442;28;20034;-80
2023/07/11 00:46:41;;;;;;;0.00;0.00;;;;;;;19.79;100.00;101554.91;5036100;28;20547;-79
2023/07/11 00:49:11;;;;;;;0.00;0.00;;;;;;;19.74;100.00;101544.66;5036460;28;20042;-79
2023/07/11 00:51:56;;;;;;;0.00;0.00;;;;;;;19.64;100.00;101547.06;5036873;28;20038;-79
2023/07/11 00:54:24;;;;;;;0.00;0.00;;;;;;;19.57;100.00;101545.47;4998903;28;20088;-78
2023/07/11 00:56:50;;;;;;;0.00;0.00;;;;;;;19.49;100.00;101550.13;5037611;28;20061;-79
2023/07/11 00:59:17;;;;;;;0.00;0.00;;;;;;;19.54;100.00;101552.19;5038517;28;20042;-78
2023/07/11 01:01:45;;;;;;;0.00;0.00;;;;;;;19.53;100.00;101548.59;5038665;28;20046;-78
2023/07/11 01:04:11;;;;;;;0.00;0.00;;;;;;;19.50;100.00;101540.03;5037403;28;20042;-80
2023/07/11 01:06:37;;;;;;;0.00;0.00;;;;;;;19.46;100.00;101538.84;5032086;28;20021;-78
2023/07/11 01:09:04;;;;;;;0.00;0.00;;;;;;;19.32;100.00;101535.38;5017063;28;20026;-79
2023/07/11 01:11:32;;;;;;;0.00;0.00;;;;;;;19.25;100.00;101532.72;5033562;28;20065;-79
2023/07/11 01:13:58;;;;;;;0.00;0.00;;;;;;;19.19;100.00;101517.22;5015930;28;20029;-80
2023/07/11 01:16:23;;;;;;;0.00;0.00;;;;;;;19.16;100.00;101514.09;5015978;28;20034;-80
2023/07/11 01:18:48;;;;;;;0.00;0.00;;;;;;;19.12;100.00;101512.88;5032730;28;20041;-79
2023/07/11 01:21:17;;;;;;;0.03;0.03;;;;;;;19.07;100.00;101511.66;5028348;28;20034;-80
2023/07/11 01:23:43;;;;;;;0.00;0.00;;;;;;;19.04;100.00;101509.38;5033246;28;20034;-80
2023/07/11 01:26:10;;;;;;;0.00;0.00;;;;;;;19.05;100.00;101502.84;5016452;28;20068;-80
2023/07/11 01:28:36;;;;;;;0.00;0.00;;;;;;;19.03;100.00;101496.78;5033828;28;20030;-80
2023/07/11 01:31:03;;;;;;;0.00;0.00;;;;;;;19.00;100.00;101497.22;5033263;28;20025;-80
2023/07/11 01:33:29;;;;;;;0.00;0.00;;;;;;;19.03;100.00;101491.31;5032937;28;20014;-80
2023/07/11 01:35:55;;;;;;;0.00;0.00;;;;;;;19.08;100.00;101488.75;5032871;28;20041;-79
2023/07/11 01:38:22;;;;;;;0.00;0.00;;;;;;;19.11;100.00;101476.56;5031845;28;20045;-79
2023/07/11 01:40:48;;;;;;;0.00;0.00;;;;;;;19.12;100.00;101471.97;5032756;28;20030;-78
2023/07/11 01:43:15;;;;;;;0.00;0.00;;;;;;;19.01;100.00;101471.63;5036148;28;20019;-79
2023/07/11 01:45:41;;;;;;;0.00;0.00;;;;;;;19.03;100.00;101482.31;5020161;28;20025;-79
2023/07/11 01:48:07;;;;;;;0.00;0.00;;;;;;;18.98;100.00;101463.88;5034580;28;20041;-78
2023/07/11 01:50:32;;;;;;;0.00;0.00;;;;;;;19.00;100.00;101458.19;5035435;28;20025;-77
2023/07/11 01:52:57;;;;;;;0.00;0.00;;;;;;;18.97;100.00;101454.03;5035739;28;20030;-78
2023/07/11 01:55:23;;;;;;;0.00;0.00;;;;;;;18.96;100.00;101452.38;5037773;28;20030;-80
2023/07/11 01:57:48;;;;;;;0.00;0.00;;;;;;;18.92;100.00;101445.66;5039395;28;20036;-78
2023/07/11 02:00:14;;;;;;;0.10;0.00;;;;;;;18.90;100.00;101444.22;5038580;28;20033;-80
2023/07/11 02:02:40;;;;;;;0.00;0.00;;;;;;;18.82;100.00;101435.25;5038416;28;20030;-79
2023/07/11 02:05:05;;;;;;;0.00;0.00;;;;;;;18.77;100.00;101436.97;5039451;28;20098;-79
2023/07/11 02:07:31;;;;;;;0.00;0.00;;;;;;;18.76;100.00;101435.31;5038480;28;20049;-80
2023/07/11 02:09:56;;;;;;;0.00;0.00;;;;;;;18.81;100.00;101441.78;5038346;28;20030;-80
2023/07/11 02:12:21;;;;;;;0.00;0.00;;;;;;;18.85;100.00;101431.25;5038111;28;20300;-79
2023/07/11 02:14:47;;;;;;;0.00;0.00;;;;;;;18.87;100.00;101420.97;5040599;28;20018;-78
2023/07/11 02:17:14;;;;;;;0.00;0.00;;;;;;;18.81;100.00;101427.31;5024282;28;20077;-79
2023/07/11 02:19:40;;;;;;;0.00;0.00;;;;;;;18.75;100.00;101423.59;5041052;28;20046;-78
2023/07/11 02:22:06;;;;;;;0.00;0.00;;;;;;;18.70;100.00;101415.19;5041341;28;20052;-78
2023/07/11 02:24:31;;;;;;;0.00;0.00;;;;;;;18.67;100.00;101409.34;5039268;28;20028;-79
2023/07/11 02:26:56;;;;;;;0.00;0.00;;;;;;;18.65;100.00;101404.94;5018834;28;20022;-80
2023/07/11 02:29:22;;;;;;;0.00;0.00;;;;;;;18.62;100.00;101397.22;5035909;28;20022;-79
2023/07/11 02:31:47;;;;;;;0.00;0.00;;;;;;;18.64;100.00;101395.13;5034819;28;20037;-78
2023/07/11 02:34:13;;;;;;;0.00;0.00;;;;;;;18.64;100.00;101400.56;5034546;28;20097;-78
2023/07/11 02:36:38;;;;;;;0.00;0.00;;;;;;;18.65;100.00;101391.31;5036115;28;20022;-79
2023/07/11 02:39:04;;;;;;;0.00;0.00;;;;;;;18.64;100.00;101389.66;5035016;28;20030;-79
2023/07/11 02:41:29;;;;;;;0.00;0.00;;;;;;;18.66;100.00;101386.69;5013633;28;20072;-80
2023/07/11 02:43:55;;;;;;;0.00;0.00;;;;;;;18.67;100.00;101380.22;5016950;28;20030;-79
2023/07/11 02:46:20;;;;;;;0.00;0.00;;;;;;;18.72;100.00;101384.97;5034517;28;20056;-79
2023/07/11 02:48:46;;;;;;;0.00;0.00;;;;;;;18.75;100.00;101384.59;5034689;28;20036;-80
2023/07/11 02:51:11;;;;;;;0.00;0.00;;;;;;;18.74;100.00;101375.50;5030510;28;20085;-79
2023/07/11 02:53:37;;;;;;;0.00;0.00;;;;;;;18.73;100.00;101370.28;5035715;28;20034;-80
2023/07/11 02:56:02;;;;;;;0.00;0.00;;;;;;;18.73;100.00;101373.84;5035313;28;20014;-79
2023/07/11 02:58:28;;;;;;;0.00;0.00;;;;;;;18.69;100.00;101371.78;5035810;28;20053;-80
2023/07/11 03:00:55;;;;;;;0.00;0.00;;;;;;;18.73;100.00;101370.28;5035202;28;20026;-80
2023/07/11 03:03:20;;;;;;;0.00;0.00;;;;;;;18.70;100.00;101370.75;5034866;28;20030;-80
2023/07/11 03:05:47;;;;;;;0.00;0.00;;;;;;;18.73;100.00;101367.56;5018502;28;20030;-79
2023/07/11 03:08:13;;;;;;;0.00;0.00;;;;;;;18.74;100.00;101363.78;5035202;28;20033;-79
2023/07/11 03:10:39;;;;;;;0.00;0.00;;;;;;;18.76;100.00;101362.53;5034411;28;20026;-79
2023/07/11 03:13:05;;;;;;;0.00;0.00;;;;;;;18.79;100.00;101353.06;5035087;28;20022;-78
2023/07/11 03:15:33;;;;;;;0.00;0.00;;;;;;;18.81;100.00;101354.50;5036484;28;20034;-80
2023/07/11 03:17:58;;;;;;;0.00;0.00;;;;;;;18.83;100.00;101359.75;5033133;28;20026;-78
2023/07/11 03:20:23;;;;;;;0.00;0.00;;;;;;;18.77;100.00;101353.31;5023557;28;20041;-79
2023/07/11 03:22:49;;;;;;;0.00;0.00;;;;;;;18.77;100.00;101350.56;5033753;28;20057;-78
2023/07/11 03:25:14;;;;;;;0.00;0.00;;;;;;;18.74;100.00;101350.13;5034124;28;20053;-78
2023/07/11 03:27:40;;;;;;;0.00;0.00;;;;;;;18.71;100.00;101345.13;5032999;28;20026;-79
2023/07/11 03:30:06;;;;;;;0.00;0.00;;;;;;;18.72;100.00;101339.47;5034529;28;20109;-78
2023/07/11 03:32:31;;;;;;;0.00;0.00;;;;;;;18.67;100.00;101343.91;5034966;28;20065;-79
2023/07/11 03:34:56;;;;;;;0.00;0.00;;;;;;;18.67;100.00;101333.00;5033037;28;20025;-80
2023/07/11 03:37:22;;;;;;;0.00;0.00;;;;;;;18.67;100.00;101319.38;5034093;28;20125;-81
2023/07/11 03:39:47;;;;;;;0.00;0.00;;;;;;;18.69;100.00;101330.88;5034934;28;20030;-80
2023/07/11 03:42:12;;;;;;;0.00;0.00;;;;;;;18.70;100.00;101327.13;5033946;28;20058;-79
2023/07/11 03:44:38;;;;;;;0.00;0.00;;;;;;;18.71;100.00;101320.59;5034812;28;20041;-80
2023/07/11 03:47:04;;;;;;;0.00;0.00;;;;;;;18.69;100.00;101319.97;5019594;28;20024;-80
2023/07/11 03:49:29;;;;;;;0.00;0.00;;;;;;;18.62;100.00;101323.63;5037897;28;20038;-80
2023/07/11 03:51:54;;;;;;;0.00;0.00;;;;;;;18.64;100.00;101318.78;5019774;28;20041;-80
2023/07/11 03:54:23;;;;;;;0.00;0.00;;;;;;;18.63;100.00;101322.53;5036567;28;20037;-79
2023/07/11 03:56:50;;;;;;;0.00;0.00;;;;;;;18.57;100.00;101314.44;5035061;28;20034;-79
2023/07/11 03:59:15;;;;;;;0.00;0.00;;;;;;;18.52;100.00;101320.56;5034530;28;20050;-79
2023/07/11 04:01:40;;;;;;;0.00;0.00;;;;;;;18.42;100.00;101309.31;5017332;28;20097;-78
2023/07/11 04:04:06;;;;;;;0.00;0.00;;;;;;;18.45;100.00;101306.16;5033110;28;20010;-78
2023/07/11 04:06:31;;;;;;;0.00;0.00;;;;;;;18.36;100.00;101310.22;5026239;28;20053;-80
2023/07/11 04:08:56;;;;;;;0.00;0.00;;;;;;;18.30;100.00;101302.91;5033969;28;20021;-79
2023/07/11 04:11:22;;;;;;;0.00;0.00;;;;;;;18.34;100.00;101304.97;5033750;28;20034;-79
2023/07/11 04:13:47;;;;;;;0.00;0.00;;;;;;;18.34;100.00;101304.16;5032814;28;20175;-79
2023/07/11 04:16:13;;;;;;;0.00;0.00;;;;;;;18.41;100.00;101302.22;5033844;28;20018;-80
2023/07/11 04:18:38;;;;;;;0.00;0.00;;;;;;;18.42;100.00;101298.41;5033472;28;20057;-80
2023/07/11 04:21:03;;;;;;;0.00;0.00;;;;;;;18.47;100.00;101301.31;5031641;28;20034;-79
2023/07/11 04:23:29;;;;;;;0.00;0.00;;;;;;;18.40;100.00;101295.94;5033856;28;20045;-78
2023/07/11 04:25:54;;;;;;;0.00;0.00;;;;;;;18.46;100.00;101290.63;5027189;28;20037;-79
2023/07/11 04:28:20;;;;;;;0.00;0.00;;;;;;;18.52;100.00;101290.56;5033128;28;20038;-79
2023/07/11 04:30:50;;;;;;;0.00;0.00;;;;;;;18.52;100.00;101282.41;5030463;28;20084;-78
2023/07/11 04:33:16;;;;;;;0.00;0.00;;;;;;;18.56;100.00;101282.78;5031772;28;20030;-79
2023/07/11 04:35:43;;;;;;;0.00;0.00;;;;;;;18.63;100.00;101278.09;5018599;28;20036;-78
2023/07/11 04:38:08;;;;;;;0.00;0.00;;;;;;;18.64;100.00;101285.22;5037234;28;20024;-80
2023/07/11 04:40:34;;;;;;;0.00;0.00;;;;;;;18.70;100.00;101278.03;5033131;28;20045;-81
2023/07/11 04:42:59;;;;;;;0.00;0.00;;;;;;;18.72;100.00;101278.63;5031185;28;20044;-78
2023/07/11 04:45:25;;;;;;;0.00;0.00;;;;;;;18.82;100.00;101270.81;5015943;28;20038;-80
2023/07/11 04:47:50;;;;;;;0.00;0.00;;;;;;;18.82;100.00;101262.63;5034038;28;20029;-79
2023/07/11 04:50:16;;;;;;;0.00;0.00;;;;;;;18.90;100.00;101259.59;5034152;28;20086;-81
2023/07/11 04:52:42;;;;;;;0.00;0.00;;;;;;;18.93;100.00;101250.97;5018372;28;20107;-78
2023/07/11 04:55:08;;;;;;;0.00;0.00;;;;;;;19.02;100.00;101252.31;5037330;28;20050;-81
2023/07/11 04:57:34;;;;;;;0.00;0.00;;;;;;;19.25;100.00;101248.91;5044810;28;20029;-80
2023/07/11 04:59:59;;;;;;;0.00;0.00;;;;;;;19.25;100.00;101248.91;5021028;28;20057;-80
2023/07/11 05:02:24;;;;;;;0.00;0.00;;;;;;;19.14;100.00;101248.81;5038420;28;20013;-79
2023/07/11 05:04:50;;;;;;;0.00;0.00;;;;;;;19.20;100.00;101243.28;5038338;28;20018;-78
2023/07/11 05:07:15;;;;;;;0.00;0.00;;;;;;;19.25;100.00;101242.63;5037639;28;20026;-79
2023/07/11 05:09:41;;;;;;;0.00;0.00;;;;;;;19.17;100.00;101240.16;5033769;28;20026;-79
2023/07/11 05:12:07;;;;;;;0.00;0.00;;;;;;;19.14;100.00;101236.03;5035853;28;20010;-78
2023/07/11 05:14:32;;;;;;;0.00;0.00;;;;;;;19.15;100.00;101231.41;5035732;28;20052;-78
2023/07/11 05:16:58;;;;;;;0.00;0.00;;;;;;;19.21;100.00;101235.94;5022524;28;20020;-79
2023/07/11 05:19:23;;;;;;;0.20;0.00;;;;;;;19.21;100.00;101225.84;5012571;28;20206;-78
2023/07/11 05:21:48;;;;;;;0.00;0.00;;;;;;;19.26;100.00;101223.25;5010221;28;20026;-79
2023/07/11 05:24:14;;;;;;;0.00;0.00;;;;;;;19.25;100.00;101215.31;5027175;28;20025;-80
2023/07/11 05:26:39;;;;;;;0.00;0.00;;;;;;;19.27;100.00;101219.50;5026901;28;20025;-79
2023/07/11 05:29:07;;;;;;;0.00;0.00;;;;;;;19.22;100.00;101205.69;5024767;28;20036;-80
2023/07/11 05:31:32;;;;;;;;;;;;;;;19.13;100.00;101217.16;5021211;28;20060;-80
2023/07/11 05:33:58;;;;;;;0.00;0.00;;;;;;;19.11;100.00;101201.00;5001164;28;19909;-79
2023/07/11 05:38:52;;;;;;;0.00;0.00;;;;;;;19.36;100.00;101200.88;5031773;28;20567;-82
2023/07/11 05:41:19;;;;;;;0.00;0.00;;;;;;;19.45;100.00;101201.38;5027477;28;20057;-81
2023/07/11 05:43:44;;;;;;;0.00;0.00;;;;;;;19.58;100.00;101201.19;5024140;28;20037;-82
2023/07/11 05:46:10;;;;;;;0.00;0.00;;;;;;;19.55;100.00;101196.19;5018803;28;20030;-78
2023/07/11 05:48:35;;;;;;;0.00;0.00;;;;;;;19.49;100.00;101189.78;5027245;28;20049;-80
2023/07/11 05:51:04;;;;;;;0.00;0.00;;;;;;;19.56;100.00;101192.38;5031062;28;20034;-81
2023/07/11 05:53:29;;;;;;;0.00;0.00;;;;;;;19.55;100.00;101196.19;5030752;28;20026;-80
2023/07/11 05:55:58;;;;;;;0.00;0.00;;;;;;;19.62;100.00;101190.66;5027362;28;20038;-80
2023/07/11 05:58:27;;;;;;;0.00;0.00;;;;;;;19.73;100.00;101196.16;5029589;28;20081;-81
2023/07/11 06:00:53;;;;;;;0.00;0.00;;;;;;;19.83;100.00;101183.84;5033337;28;20087;-78
2023/07/11 06:03:20;;;;;;;0.00;0.00;;;;;;;20.01;100.00;101186.47;5025211;28;20025;-82
2023/07/11 06:05:45;;;;;;;0.00;0.00;;;;;;;20.09;100.00;101175.19;5015504;28;20070;-81
2023/07/11 06:08:15;;;;;;;0.00;0.00;;;;;;;20.26;100.00;101177.22;5015358;28;20039;-80
2023/07/11 06:10:42;;;;;;;0.00;0.00;;;;;;;20.47;100.00;101183.97;5021389;28;20041;-78
2023/07/11 06:13:09;;;;;;;0.00;0.00;;;;;;;20.69;100.00;101173.25;5014960;28;20026;-80
2023/07/11 06:15:35;;;;;;;0.00;0.00;;;;;;;20.93;100.00;101172.13;5034498;28;20014;-79
2023/07/11 06:18:00;;;;;;;0.00;0.00;;;;;;;21.16;100.00;101173.94;5030492;28;20045;-77
2023/07/11 06:20:25;;;;;;;0.08;0.00;;;;;;;21.37;100.00;101160.63;5032659;28;20041;-81
2023/07/11 06:22:51;;;;;;;0.00;0.00;;;;;;;21.61;100.00;101162.19;5035313;28;20042;-79
2023/07/11 06:25:16;;;;;;;0.00;0.00;;;;;;;21.88;100.00;101172.50;5036861;28;20085;-78
2023/07/11 06:27:42;;;;;;;0.00;0.00;;;;;;;22.13;100.00;101158.38;5036065;28;20160;-81
2023/07/11 06:30:08;;;;;;;0.00;0.00;;;;;;;22.77;100.00;101157.88;5031147;28;20040;-80
2023/07/11 06:32:33;;;;;;;0.00;0.00;;;;;;;23.41;100.00;101162.75;5027645;28;20033;-81
2023/07/11 06:34:59;;;;;;;0.10;0.00;;;;;;;24.00;100.00;101162.72;5011571;28;20022;-79
2023/07/11 06:37:24;;;;;;;0.00;0.00;;;;;;;24.24;100.00;101165.91;5029701;28;20501;-79
2023/07/11 06:39:49;;;;;;;0.00;0.00;;;;;;;24.67;100.00;101163.13;5027782;28;20088;-80
2023/07/11 06:42:15;;;;;;;0.00;0.00;;;;;;;24.87;100.00;101159.63;5023353;28;20022;-81
2023/07/11 06:44:41;;;;;;;0.00;0.00;;;;;;;25.08;97.97;101164.09;5021521;28;20109;-78
2023/07/11 06:47:06;;;;;;;0.00;0.00;;;;;;;25.27;97.68;101160.88;5023584;28;20037;-80
2023/07/11 06:49:31;;;;;;;0.00;0.00;;;;;;;25.21;98.65;101156.47;5006686;28;20029;-80
2023/07/11 06:51:57;;;;;;;0.00;0.00;;;;;;;24.78;99.05;101148.34;5009665;28;20117;-78
2023/07/11 06:54:22;;;;;;;0.00;0.00;;;;;;;24.76;99.33;101161.53;5022888;28;20032;-80
2023/07/11 06:56:48;;;;;;;0.00;0.00;;;;;;;24.76;99.43;101158.78;5009177;28;20156;-81
2023/07/11 06:59:22;;;;;;;0.00;0.00;;;;;;;24.65;98.06;101149.66;5010226;28;20053;-78
2023/07/11 07:01:48;;;;;;;0.00;0.00;;;;;;;24.59;99.02;101147.94;5023768;28;20076;-80
2023/07/11 07:04:14;;;;;;;0.00;0.00;;;;;;;24.82;97.89;101145.84;5028840;28;20032;-80
2023/07/11 07:06:42;;;;;;;0.00;0.00;;;;;;;25.17;97.36;101167.19;5010654;28;20062;-80
2023/07/11 07:09:08;;;;;;;0.00;0.00;;;;;;;25.52;95.41;101155.41;5008540;28;20026;-80
2023/07/11 07:11:35;;;;;;;0.00;0.00;;;;;;;25.33;95.02;101146.84;5024075;28;20123;-80
2023/07/11 07:14:05;;;;;;;0.00;0.00;;;;;;;25.80;93.61;101159.56;5028271;28;20053;-81
2023/07/11 07:16:32;;;;;;;0.00;0.00;;;;;;;26.38;93.56;101155.59;5029033;28;20107;-79
2023/07/11 07:18:58;;;;;;;0.00;0.00;;;;;;;26.96;89.74;101152.38;5029908;28;20353;-81
2023/07/11 07:21:23;;;;;;;0.00;0.00;;;;;;;27.07;88.44;101159.50;5011010;28;20025;-82
2023/07/11 07:23:49;;;;;;;0.00;0.00;;;;;;;27.35;87.75;101167.06;5014530;28;20125;-79
2023/07/11 07:26:14;;;;;;;0.00;0.00;;;;;;;27.13;87.14;101158.34;5007616;28;20034;-80
2023/07/11 07:28:39;;;;;;;0.00;0.00;;;;;;;27.33;84.93;101151.88;5027568;28;20030;-80
2023/07/11 07:31:05;;;;;;;0.00;0.00;;;;;;;27.80;83.57;101155.94;5008644;28;20097;-80
2023/07/11 07:33:31;;;;;;;0.00;0.00;;;;;;;27.85;84.26;101155.94;5023402;28;20025;-82
2023/07/11 07:36:03;;;;;;;0.03;0.00;;;;;;;26.97;83.68;101152.09;5024024;28;20465;-81
2023/07/11 07:38:29;;;;;;;0.00;0.00;;;;;;;26.88;85.52;101160.16;5023466;28;20378;-83
2023/07/11 07:40:55;;;;;;;0.00;0.00;;;;;;;26.43;86.61;101148.13;5018142;28;20034;-79
2023/07/11 07:43:21;;;;;;;0.00;0.00;;;;;;;26.97;85.33;101143.81;5006433;28;20026;-81
2023/07/11 07:45:50;;;;;;;0.00;0.00;;;;;;;27.13;85.25;101144.53;5018106;28;20026;-82
2023/07/11 07:48:17;;;;;;;0.00;0.00;;;;;;;27.80;83.56;101147.66;5002720;28;20038;-80
2023/07/11 07:50:43;;;;;;;0.00;0.00;;;;;;;27.89;82.04;101150.66;5002224;23;20061;-48
2023/07/11 07:53:08;;;;;;;0.00;0.00;;;;;;;27.41;84.02;101143.00;4990501;28;20046;-44
2023/07/11 07:55:37;;;;;;;0.00;0.00;;;;;;;27.96;82.18;101153.91;4977365;28;20038;-46
2023/07/11 07:58:02;;;;;;;0.00;0.00;;;;;;;27.81;81.76;101141.06;4994270;28;20158;-43
2023/07/11 08:00:28;;;;;;;0.05;0.00;;;;;;;27.28;82.55;101155.53;4996225;28;20128;-43
2023/07/11 08:02:53;;;;;;;0.00;0.00;;;;;;;27.51;83.42;101147.63;5002568;28;20034;-45
2023/07/11 08:05:20;;;;;;;0.00;0.00;;;;;;;27.23;84.12;101138.16;4984053;28;20110;-43
2023/07/11 08:07:45;;;;;;;;;;;;;;;28.01;83.66;101137.25;5007508;28;20026;-43
2023/07/11 08:10:11;;;;;;;0.00;0.00;;;;;;;27.93;82.12;101144.22;4998716;28;20395;-45
2023/07/11 08:12:36;;;;;;;0.00;0.00;;;;;;;27.66;84.19;101130.91;4994345;28;20089;-47
2023/07/11 08:15:05;;;;;;;0.00;0.00;;;;;;;27.65;83.26;101125.66;4993764;28;20033;-47
2023/07/11 08:17:31;;;;;;;0.00;0.00;;;;;;;28.38;82.55;101121.91;5009789;28;20117;-46
2023/07/11 08:19:56;;;;;;;0.00;0.00;;;;;;;29.24;78.42;101133.00;4998698;28;20610;-46
2023/07/11 08:22:22;;;;;;;0.00;0.00;;;;;;;29.46;78.26;101141.50;4991830;28;20113;-45
2023/07/11 08:24:47;;;;;;;0.05;0.00;;;;;;;29.60;77.91;101137.97;4990522;28;20037;-44
2023/07/11 08:27:13;;;;;;;0.00;0.00;;;;;;;29.29;78.98;101130.97;4993033;28;20436;-44
2023/07/11 08:29:41;;;;;;;0.00;0.00;;;;;;;29.06;80.29;101152.09;4993613;28;20109;-44
2023/07/11 08:32:07;;;;;;;0.00;0.00;;;;;;;28.37;82.93;101142.41;4993306;28;20026;-43
2023/07/11 08:34:32;;;;;;;0.00;0.00;;;;;;;28.36;82.56;101146.31;4993163;28;20523;-44
2023/07/11 08:36:57;;;;;;;0.00;0.00;;;;;;;28.94;83.28;101140.59;4973413;28;20055;-45
2023/07/11 08:39:23;;;;;;;0.00;0.00;;;;;;;29.82;79.42;101154.81;4993187;28;20042;-46
2023/07/11 08:41:53;;;;;;;0.00;0.00;;;;;;;29.20;80.73;101140.25;4993116;28;20101;-49
2023/07/11 08:44:28;;;;;;;0.00;0.00;;;;;;;29.57;78.73;101150.50;4992505;28;20081;-45
2023/07/11 08:47:18;;;;;;;0.00;0.00;;;;;;;29.29;77.24;101163.41;4992942;28;20505;-45
2023/07/11 08:50:03;;;;;;;0.00;0.00;;;;;;;29.82;76.03;101165.09;4988382;28;20456;-45
2023/07/11 08:52:29;;;;;;;0.00;0.00;;;;;;;29.58;75.83;101148.53;4992391;28;20076;-46
2023/07/11 08:55:02;;;;;;;0.00;0.00;;;;;;;29.82;75.78;101165.09;4988805;28;20082;-46
2023/07/11 08:57:29;;;;;;;0.00;0.00;;;;;;;28.70;80.09;101162.81;4991555;28;20030;-45
2023/07/11 09:00:12;;;;;;;0.00;0.00;;;;;;;28.22;84.02;101160.81;4981435;28;20073;-50
2023/07/11 09:02:57;;;;;;;0.00;0.00;;;;;;;28.59;84.08;101153.78;4972235;28;20038;-44
2023/07/11 09:05:35;;;;;;;0.00;0.00;;;;;;;27.77;86.00;101160.13;4990175;28;20108;-45
2023/07/11 09:08:01;;;;;;;0.00;0.00;;;;;;;28.45;85.96;101161.97;4990236;28;20035;-45
2023/07/11 09:10:35;;;;;;;0.00;0.00;;;;;;;28.63;84.05;101163.16;4990209;28;20041;-45
2023/07/11 09:13:33;;;;;;;0.00;0.00;;;;;;;27.85;84.94;101152.34;4986090;28;20460;-44
2023/07/11 09:16:20;;;;;;;0.00;0.00;;;;;;;27.02;88.32;101151.25;4990026;28;20678;-46
2023/07/11 09:18:53;;;;;;;0.00;0.00;;;;;;;26.82;91.60;101144.72;4984983;28;20389;-44
2023/07/11 09:21:39;;;;;;;0.10;0.00;;;;;;;26.85;93.54;101144.13;4991807;28;20026;-46
2023/07/11 09:24:31;;;;;;;0.00;0.00;;;;;;;26.70;91.90;101138.72;4979502;28;20034;-46
2023/07/11 09:27:02;;;;;;;0.00;0.00;;;;;;;26.39;93.82;101144.31;4989848;28;20041;-48
2023/07/11 09:29:28;;;;;;;0.00;0.00;;;;;;;26.53;92.20;101143.75;4991080;28;20044;-48
2023/07/11 09:31:57;;;;;;;0.00;0.00;;;;;;;26.53;92.35;101139.03;4992092;28;20054;-47
2023/07/11 09:34:27;;;;;;;0.00;0.00;;;;;;;26.76;92.93;101136.75;4990618;28;20042;-44
2023/07/11 09:36:55;;;;;;;0.00;0.00;;;;;;;27.53;90.17;101139.88;4991499;28;20039;-45
2023/07/11 09:39:35;;;;;;;0.00;0.00;;;;;;;27.53;90.10;101134.34;4988756;28;20027;-45
2023/07/11 09:42:23;;;;;;;0.00;0.00;;;;;;;27.95;90.12;101125.41;4966810;28;20065;-43
2023/07/11 09:45:08;;;;;;;0.00;0.00;;;;;;;28.63;88.17;101132.69;4990750;28;20512;-45
2023/07/11 09:47:34;;;;;;;0.00;0.00;;;;;;;29.13;86.32;101124.00;4990994;28;20165;-44
2023/07/11 09:50:05;;;;;;;0.00;0.00;;;;;;;29.32;83.52;101126.75;4993156;28;20022;-48
2023/07/11 09:52:31;;;;;;;0.00;0.00;;;;;;;29.61;83.75;101126.56;4991022;28;20039;-44
2023/07/11 09:54:57;;;;;;;0.00;0.00;;;;;;;30.30;81.56;101123.97;4990683;28;20042;-43
2023/07/11 09:57:22;;;;;;;0.00;0.00;;;;;;;30.20;80.84;101126.91;4977763;28;20469;-46
2023/07/11 10:00:16;;;;;;;0.00;0.00;;;;;;;29.92;80.31;101140.75;4989767;28;20034;-44
2023/07/11 10:02:46;;;;;;;0.00;0.00;;;;;;;28.80;84.89;101134.97;4986849;28;20057;-46
2023/07/11 10:05:21;;;;;;;0.00;0.00;;;;;;;29.07;84.01;101128.81;4996153;28;20133;-45
2023/07/11 10:08:01;;;;;;;0.00;0.00;;;;;;;28.57;83.43;101125.59;4996472;28;20038;-44
2023/07/11 10:10:26;;;;;;;0.00;0.00;;;;;;;28.76;83.33;101133.09;4996794;28;20034;-43
2023/07/11 10:12:52;;;;;;;0.00;0.00;;;;;;;28.49;83.56;101126.25;4995562;28;20141;-45
2023/07/11 10:15:18;;;;;;;0.00;0.00;;;;;;;28.30;86.17;101117.84;4995889;28;20335;-45
2023/07/11 10:17:44;;;;;;;0.00;0.00;;;;;;;28.01;86.97;101109.56;4995777;28;20038;-43
2023/07/11 10:20:18;;;;;;;0.00;0.00;;;;;;;28.89;85.36;101112.97;4991110;28;20026;-45
2023/07/11 10:22:48;;;;;;;0.00;0.00;;;;;;;29.37;84.81;101106.47;4991143;28;20371;-45
2023/07/11 10:25:21;;;;;;;0.00;0.00;;;;;;;29.18;82.73;101101.75;4981887;28;20022;-44
2023/07/11 10:28:13;;;;;;;0.00;0.00;;;;;;;30.12;80.31;101113.75;4973399;28;20113;-47
2023/07/11 10:30:39;;;;;;;0.00;0.00;;;;;;;29.97;79.70;101115.69;4994428;28;20050;-48
2023/07/11 10:33:14;;;;;;;0.00;0.00;;;;;;;29.98;82.23;101113.72;4993772;28;20487;-46
2023/07/11 10:35:41;;;;;;;0.00;0.00;;;;;;;29.73;82.98;101117.81;4991506;28;20023;-43
2023/07/11 10:38:16;;;;;;;0.00;0.00;;;;;;;30.35;79.25;101109.97;4995297;28;20113;-46
2023/07/11 10:40:44;;;;;;;0.00;0.00;;;;;;;30.40;78.70;101126.53;4993768;28;20042;-45
2023/07/11 10:43:26;;;;;;;0.00;0.00;;;;;;;30.27;80.32;101116.25;4993840;28;20101;-45
2023/07/11 10:45:54;;;;;;;0.00;0.00;;;;;;;29.97;78.96;101112.09;4992479;28;20041;-46
2023/07/11 10:48:24;;;;;;;0.00;0.00;;;;;;;29.41;79.90;101122.19;4996078;28;20539;-46
2023/07/11 10:50:55;;;;;;;0.00;0.00;;;;;;;28.79;82.17;101122.25;4994314;28;20133;-44
2023/07/11 10:53:36;;;;;;;0.00;0.00;;;;;;;29.63;82.31;101113.22;4994946;28;20225;-44
2023/07/11 10:56:10;;;;;;;0.00;0.00;;;;;;;30.62;79.74;101099.97;4986002;28;20081;-46
2023/07/11 10:58:35;;;;;;;0.00;0.00;;;;;;;31.06;77.16;101107.63;4988740;28;20031;-46
2023/07/11 11:01:03;;;;;;;0.00;0.00;;;;;;;31.07;76.17;101100.13;4991511;28;20117;-46
2023/07/11 11:03:48;;;;;;;0.55;0.00;;;;;;;30.70;77.52;101085.38;4993809;28;20040;-46
2023/07/11 11:06:35;;;;;;;0.00;0.00;;;;;;;30.54;78.11;101097.91;4991289;28;20447;-47
2023/07/11 11:09:11;;;;;;;0.00;0.00;;;;;;;29.96;78.47;101110.44;4981733;28;20411;-46
2023/07/11 11:11:57;;;;;;;0.00;0.00;;;;;;;30.17;78.74;101105.31;4994248;28;20094;-50
2023/07/11 11:14:30;;;;;;;0.00;0.00;;;;;;;30.70;76.88;101106.75;4992738;28;20116;-46
2023/07/11 11:17:21;;;;;;;0.00;0.00;;;;;;;30.77;75.51;101096.84;4990738;28;20031;-48
2023/07/11 11:20:23;;;;;;;0.00;0.00;;;;;;;30.74;76.82;101096.66;4977707;28;20022;-44
2023/07/11 11:22:51;;;;;;;0.00;0.00;;;;;;;30.69;75.66;101094.81;4992622;28;20030;-46
2023/07/11 11:25:34;;;;;;;0.00;0.00;;;;;;;29.95;78.26;101092.97;4993904;28;20030;-45
2023/07/11 11:28:18;;;;;;;0.00;0.00;;;;;;;29.67;80.21;101092.09;4993045;28;20068;-45